createdAt,value
2022-11-30T00:00:56.355Z,3.32
2022-11-30T00:03:23.211Z,3.31
2022-11-30T00:05:50.114Z,3.39
2022-11-30T00:08:16.777Z,3.01
2022-11-30T00:10:43.971Z,3.30
2022-11-30T00:13:10.713Z,3.48
2022-11-30T00:15:37.493Z,3.29
2022-11-30T00:18:04.179Z,3.12
2022-11-30T00:20:31.164Z,3.56
2022-11-30T00:22:57.909Z,3.76
2022-11-30T00:25:24.961Z,3.77
2022-11-30T00:27:51.604Z,3.55
2022-11-30T00:30:18.309Z,3.77
2022-11-30T00:32:44.965Z,3.55
2022-11-30T00:35:11.594Z,3.48
2022-11-30T00:37:38.215Z,3.52
2022-11-30T00:40:06.245Z,3.83
2022-11-30T00:42:32.885Z,3.75
2022-11-30T00:44:59.588Z,3.23
2022-11-30T00:47:26.210Z,3.43
2022-11-30T00:49:52.838Z,3.28
2022-11-30T00:52:19.540Z,3.46
2022-11-30T00:54:46.472Z,3.41
2022-11-30T00:57:13.207Z,3.35
2022-11-30T00:59:39.905Z,3.31
2022-11-30T01:02:06.600Z,3.31
2022-11-30T01:04:33.259Z,3.19
2022-11-30T01:06:59.881Z,3.38
2022-11-30T01:09:26.970Z,3.71
2022-11-30T01:11:53.604Z,3.68
2022-11-30T01:14:20.213Z,4.02
2022-11-30T01:16:48.787Z,4.01
2022-11-30T01:19:17.435Z,4.10
2022-11-30T01:21:44.065Z,3.77
2022-11-30T01:24:10.707Z,3.73
2022-11-30T01:26:37.327Z,3.72
2022-11-30T01:29:03.948Z,3.52
2022-11-30T01:31:30.574Z,3.43
2022-11-30T01:33:57.195Z,3.69
2022-11-30T01:36:25.114Z,3.22
2022-11-30T01:38:54.583Z,2.99
2022-11-30T01:41:29.082Z,3.20
2022-11-30T01:44:19.772Z,3.09
2022-11-30T01:46:52.673Z,3.06
2022-11-30T01:49:22.809Z,3.00
2022-11-30T01:52:00.812Z,3.14
2022-11-30T01:54:31.762Z,3.20
2022-11-30T01:57:02.396Z,3.07
2022-11-30T01:59:29.009Z,2.90
2022-11-30T02:01:55.609Z,2.87
2022-11-30T02:04:28.286Z,2.97
2022-11-30T02:06:55.501Z,2.88
2022-11-30T02:09:22.124Z,2.68
2022-11-30T02:11:48.755Z,2.67
2022-11-30T02:14:22.886Z,2.62
2022-11-30T02:16:56.993Z,2.63
2022-11-30T02:19:56.998Z,2.40
2022-11-30T02:22:29.415Z,2.29
2022-11-30T02:25:20.150Z,2.32
2022-11-30T02:28:06.967Z,2.36
2022-11-30T02:30:33.944Z,2.55
2022-11-30T02:33:20.703Z,2.34
2022-11-30T02:35:54.564Z,2.56
2022-11-30T02:38:22.404Z,2.68
2022-11-30T02:40:49.041Z,2.91
2022-11-30T02:43:15.977Z,3.24
2022-11-30T02:45:51.071Z,2.96
2022-11-30T02:48:18.995Z,2.93
2022-11-30T02:50:47.818Z,2.85
2022-11-30T02:53:14.433Z,2.98
2022-11-30T02:55:41.336Z,3.02
2022-11-30T02:58:07.967Z,2.93
2022-11-30T03:00:34.582Z,3.04
2022-11-30T03:03:01.329Z,3.07
2022-11-30T03:05:28.513Z,2.78
2022-11-30T03:07:55.435Z,3.11
2022-11-30T03:10:22.133Z,2.98
2022-11-30T03:12:48.731Z,2.96
2022-11-30T03:15:15.692Z,2.77
2022-11-30T03:17:42.365Z,2.69
2022-11-30T03:20:09.203Z,2.90
2022-11-30T03:22:36.513Z,2.64
2022-11-30T03:25:03.341Z,2.94
2022-11-30T03:27:29.987Z,2.76
2022-11-30T03:29:56.633Z,2.97
2022-11-30T03:32:23.292Z,2.97
2022-11-30T03:34:50.081Z,3.13
2022-11-30T03:37:16.794Z,2.98
2022-11-30T03:39:43.458Z,3.09
2022-11-30T03:42:10.107Z,2.62
2022-11-30T03:44:36.836Z,2.74
2022-11-30T03:47:03.468Z,2.59
2022-11-30T03:49:30.073Z,2.63
2022-11-30T03:51:56.698Z,3.19
2022-11-30T03:54:23.341Z,3.05
2022-11-30T03:56:50.025Z,3.25
2022-11-30T03:59:16.687Z,3.22
2022-11-30T04:01:43.414Z,3.37
2022-11-30T04:04:11.302Z,3.02
2022-11-30T04:06:37.931Z,3.20
2022-11-30T04:09:04.546Z,3.17
2022-11-30T04:11:31.158Z,2.84
2022-11-30T04:13:58.424Z,2.86
2022-11-30T04:16:25.100Z,3.12
2022-11-30T04:18:51.870Z,3.22
2022-11-30T04:21:18.655Z,2.98
2022-11-30T04:23:45.299Z,2.96
2022-11-30T04:26:12.930Z,2.84
2022-11-30T04:28:39.591Z,2.88
2022-11-30T04:31:06.299Z,2.85
2022-11-30T04:33:33.083Z,2.73
2022-11-30T04:36:01.174Z,2.75
2022-11-30T04:38:27.893Z,2.87
2022-11-30T04:40:54.570Z,2.61
2022-11-30T04:43:21.265Z,2.81
2022-11-30T04:45:47.876Z,2.67
2022-11-30T04:48:14.770Z,2.78
2022-11-30T04:50:41.388Z,2.78
2022-11-30T04:53:07.998Z,2.68
2022-11-30T04:55:35.781Z,2.84
2022-11-30T04:58:02.434Z,2.79
2022-11-30T05:00:29.051Z,2.86
2022-11-30T05:02:56.386Z,3.08
2022-11-30T05:05:23.147Z,2.62
2022-11-30T05:07:50.727Z,2.75
2022-11-30T05:10:17.410Z,2.75
2022-11-30T05:12:44.473Z,2.88
2022-11-30T05:15:11.154Z,3.03
2022-11-30T05:17:37.820Z,2.93
2022-11-30T05:20:04.963Z,2.93
2022-11-30T05:22:31.600Z,2.75
2022-11-30T05:24:58.216Z,2.46
2022-11-30T05:27:24.827Z,2.53
2022-11-30T05:29:51.468Z,2.71
2022-11-30T05:32:18.191Z,2.72
2022-11-30T05:34:50.960Z,2.54
2022-11-30T05:37:18.355Z,2.84
2022-11-30T05:39:44.970Z,2.84
2022-11-30T05:42:14.094Z,2.85
2022-11-30T05:44:40.742Z,2.94
2022-11-30T05:47:07.458Z,2.87
2022-11-30T05:49:34.218Z,2.92
2022-11-30T05:52:00.827Z,2.74
2022-11-30T05:54:27.451Z,2.99
2022-11-30T05:56:55.184Z,2.93
2022-11-30T05:59:22.462Z,2.77
2022-11-30T06:01:49.300Z,2.91
2022-11-30T06:04:16.002Z,3.09
2022-11-30T06:06:42.647Z,3.12
2022-11-30T06:09:09.304Z,3.34
2022-11-30T06:11:35.937Z,3.13
2022-11-30T06:14:02.548Z,3.03
2022-11-30T06:16:29.186Z,2.90
2022-11-30T06:18:55.894Z,2.98
2022-11-30T06:21:24.663Z,2.92
2022-11-30T06:23:52.274Z,3.21
2022-11-30T06:26:18.932Z,3.10
2022-11-30T06:28:48.620Z,3.56
2022-11-30T06:31:15.678Z,3.15
2022-11-30T06:33:42.385Z,3.51
2022-11-30T06:36:09.254Z,2.98
2022-11-30T06:38:35.875Z,3.35
2022-11-30T06:41:04.250Z,3.45
2022-11-30T06:43:33.893Z,3.24
2022-11-30T06:46:00.579Z,3.49
2022-11-30T06:48:27.261Z,3.34
2022-11-30T06:50:53.901Z,3.91
2022-11-30T06:53:20.516Z,3.56
2022-11-30T06:55:47.142Z,3.78
2022-11-30T06:58:13.777Z,4.03
2022-11-30T07:00:40.415Z,4.05
2022-11-30T07:03:07.129Z,3.98
2022-11-30T07:05:34.755Z,4.39
2022-11-30T07:08:01.501Z,5.54
2022-11-30T07:10:28.164Z,4.75
2022-11-30T07:12:54.813Z,4.24
2022-11-30T07:15:21.484Z,4.94
2022-11-30T07:17:48.115Z,4.63
2022-11-30T07:20:15.076Z,5.09
2022-11-30T07:22:41.683Z,4.61
2022-11-30T07:25:09.594Z,4.15
2022-11-30T07:27:36.252Z,4.06
2022-11-30T07:30:03.123Z,3.88
2022-11-30T07:32:29.756Z,4.33
2022-11-30T07:34:56.388Z,4.95
2022-11-30T07:37:23.037Z,4.71
2022-11-30T07:39:49.690Z,4.34
2022-11-30T07:42:16.374Z,4.16
2022-11-30T07:44:43.013Z,4.16
2022-11-30T07:47:09.641Z,3.95
2022-11-30T07:49:36.288Z,4.36
2022-11-30T07:52:02.930Z,4.58
2022-11-30T07:54:29.525Z,4.17
2022-11-30T07:56:56.137Z,4.76
2022-11-30T07:59:22.760Z,4.33
2022-11-30T08:01:49.460Z,4.57
2022-11-30T08:04:16.265Z,5.21
2022-11-30T08:06:43.037Z,6.30
2022-11-30T08:09:14.218Z,6.72
2022-11-30T08:11:43.157Z,7.20
2022-11-30T08:14:11.714Z,6.69
2022-11-30T08:16:38.390Z,6.20
2022-11-30T08:19:05.039Z,6.71
2022-11-30T08:21:31.652Z,8.14
2022-11-30T08:23:58.377Z,5.83
2022-11-30T08:26:34.197Z,4.40
2022-11-30T08:29:01.048Z,4.64
2022-11-30T08:31:29.339Z,5.06
2022-11-30T08:33:56.955Z,5.13
2022-11-30T08:36:23.686Z,5.01
2022-11-30T08:38:50.301Z,4.35
2022-11-30T08:41:18.801Z,4.77
2022-11-30T08:43:45.557Z,4.29
2022-11-30T08:46:42.645Z,4.27
2022-11-30T08:49:19.725Z,4.82
2022-11-30T08:52:16.015Z,4.66
2022-11-30T08:54:33.720Z,5.02
2022-11-30T08:57:00.359Z,4.37
2022-11-30T08:59:26.988Z,3.32
2022-11-30T09:01:53.601Z,3.72
2022-11-30T09:04:20.247Z,4.20
2022-11-30T09:06:46.855Z,3.85
2022-11-30T09:09:13.509Z,3.71
2022-11-30T09:11:40.166Z,4.64
2022-11-30T09:14:06.774Z,3.93
2022-11-30T09:16:33.396Z,3.36
2022-11-30T09:19:00.008Z,3.42
2022-11-30T09:21:26.888Z,3.55
2022-11-30T09:23:54.896Z,3.53
2022-11-30T09:26:21.574Z,3.81
2022-11-30T09:28:48.302Z,3.73
2022-11-30T09:31:19.902Z,3.96
2022-11-30T09:33:46.596Z,3.64
2022-11-30T09:36:14.755Z,4.29
2022-11-30T09:38:41.449Z,4.05
2022-11-30T09:41:36.815Z,4.33
2022-11-30T09:44:09.549Z,3.97
2022-11-30T09:46:53.224Z,4.22
2022-11-30T09:49:34.261Z,4.37
2022-11-30T09:52:02.562Z,4.38
2022-11-30T09:54:36.954Z,7.33
2022-11-30T09:57:24.618Z,8.27
2022-11-30T10:00:02.026Z,5.48
2022-11-30T10:02:31.701Z,4.79
2022-11-30T10:04:58.442Z,4.73
2022-11-30T10:07:49.258Z,3.85
2022-11-30T10:10:32.773Z,3.58
2022-11-30T10:13:06.076Z,4.30
2022-11-30T10:15:36.797Z,3.97
2022-11-30T10:18:22.958Z,4.22
2022-11-30T10:20:59.228Z,4.34
2022-11-30T10:23:29.785Z,4.44
2022-11-30T10:26:05.475Z,4.15
2022-11-30T10:28:48.369Z,4.18
2022-11-30T10:31:15.670Z,4.27
2022-11-30T10:33:52.416Z,4.11
2022-11-30T10:36:33.424Z,3.57
2022-11-30T10:39:01.193Z,3.92
2022-11-30T10:41:36.121Z,3.99
2022-11-30T10:44:11.618Z,3.85
2022-11-30T10:46:38.847Z,3.87
2022-11-30T10:49:12.794Z,4.27
2022-11-30T10:51:40.151Z,4.18
2022-11-30T10:54:19.860Z,4.05
2022-11-30T10:56:46.802Z,3.90
2022-11-30T10:59:23.079Z,3.93
2022-11-30T11:01:49.721Z,3.91
2022-11-30T11:04:18.489Z,3.76
2022-11-30T11:06:56.106Z,3.54
2022-11-30T11:09:23.312Z,3.41
2022-11-30T11:11:58.278Z,3.73
2022-11-30T11:14:25.915Z,3.61
2022-11-30T11:16:59.039Z,3.61
2022-11-30T11:19:42.112Z,3.23
2022-11-30T11:22:27.921Z,3.28
2022-11-30T11:25:07.675Z,3.01
2022-11-30T11:27:35.179Z,3.02
2022-11-30T11:30:24.884Z,3.36
2022-11-30T11:32:59.211Z,2.98
2022-11-30T11:35:42.810Z,3.32
2022-11-30T11:38:29.374Z,3.22
2022-11-30T11:41:01.953Z,2.96
2022-11-30T11:43:31.147Z,3.02
2022-11-30T11:46:13.066Z,3.38
2022-11-30T11:48:41.653Z,3.33
2022-11-30T11:51:09.756Z,3.37
2022-11-30T11:53:53.021Z,3.32
2022-11-30T11:56:28.384Z,3.13
2022-11-30T11:58:59.041Z,3.14
2022-11-30T12:02:03.190Z,2.67
2022-11-30T12:04:52.149Z,2.45
2022-11-30T12:07:50.624Z,2.47
2022-11-30T12:10:53.498Z,2.31
2022-11-30T12:13:27.106Z,2.25
2022-11-30T12:16:05.368Z,2.30
2022-11-30T12:18:50.360Z,2.35
2022-11-30T12:21:24.472Z,2.72
2022-11-30T12:24:21.830Z,2.40
2022-11-30T12:27:14.770Z,2.29
2022-11-30T12:30:08.836Z,2.40
2022-11-30T12:33:00.727Z,2.64
2022-11-30T12:35:51.547Z,3.23
2022-11-30T12:38:46.252Z,2.74
2022-11-30T12:41:34.710Z,2.34
2022-11-30T12:44:22.459Z,2.53
2022-11-30T12:46:54.933Z,2.63
2022-11-30T12:49:50.394Z,2.80
2022-11-30T12:52:38.620Z,2.74
2022-11-30T12:55:39.897Z,2.58
2022-11-30T12:58:21.239Z,2.42
2022-11-30T13:00:47.751Z,2.76
2022-11-30T13:03:38.052Z,2.50
2022-11-30T13:06:10.406Z,2.43
2022-11-30T13:08:51.433Z,2.82
2022-11-30T13:11:27.378Z,2.53
2022-11-30T13:13:56.051Z,2.79
2022-11-30T13:16:23.357Z,2.57
2022-11-30T13:18:54.674Z,2.62
2022-11-30T13:21:37.486Z,2.61
2022-11-30T13:24:22.245Z,2.55
2022-11-30T13:26:56.981Z,2.69
2022-11-30T13:29:44.925Z,2.62
2022-11-30T13:32:33.895Z,2.34
2022-11-30T13:35:37.867Z,2.55
2022-11-30T13:38:40.509Z,2.33
2022-11-30T13:41:08.188Z,2.28
2022-11-30T13:43:36.628Z,2.17
2022-11-30T13:46:05.151Z,2.05
2022-11-30T13:48:34.198Z,2.17
2022-11-30T13:51:01.046Z,2.10
2022-11-30T13:53:31.947Z,2.31
2022-11-30T13:56:22.144Z,2.24
2022-11-30T13:59:22.900Z,2.49
2022-11-30T14:04:34.733Z,2.19
2022-11-30T14:07:01.375Z,2.24
2022-11-30T14:09:40.150Z,2.41
2022-11-30T14:12:31.764Z,2.34
2022-11-30T14:14:59.124Z,2.39
2022-11-30T14:17:29.678Z,2.60
2022-11-30T14:19:58.924Z,2.71
2022-11-30T14:22:26.471Z,2.74
2022-11-30T14:24:53.120Z,2.84
2022-11-30T14:27:24.059Z,2.65
2022-11-30T14:29:52.093Z,2.74
2022-11-30T14:32:34.869Z,2.59
2022-11-30T14:35:03.925Z,2.63
2022-11-30T14:37:39.955Z,2.55
2022-11-30T14:40:07.335Z,2.57
2022-11-30T14:42:34.495Z,2.81
2022-11-30T14:45:01.181Z,2.80
2022-11-30T14:47:32.634Z,2.82
2022-11-30T14:50:00.897Z,3.81
2022-11-30T14:52:38.796Z,3.63
2022-11-30T14:55:27.921Z,3.92
2022-11-30T14:58:15.773Z,4.65
2022-11-30T15:00:45.892Z,5.87
2022-11-30T15:03:21.368Z,5.63
2022-11-30T15:05:51.117Z,6.57
2022-11-30T15:08:17.966Z,6.60
2022-11-30T15:10:44.625Z,6.81
2022-11-30T15:13:15.226Z,6.86
2022-11-30T15:15:54.976Z,7.15
2022-11-30T15:18:23.276Z,7.55
2022-11-30T15:20:57.488Z,8.11
2022-11-30T15:23:24.143Z,7.83
2022-11-30T15:26:01.240Z,8.07
2022-11-30T15:28:31.487Z,8.16
2022-11-30T15:30:59.256Z,7.95
2022-11-30T15:33:31.505Z,8.45
2022-11-30T15:36:18.702Z,8.56
2022-11-30T15:38:49.036Z,9.13
2022-11-30T15:41:20.925Z,8.94
2022-11-30T15:43:49.934Z,9.22
2022-11-30T15:46:31.012Z,9.71
2022-11-30T15:49:14.337Z,9.52
2022-11-30T15:51:42.566Z,9.25
2022-11-30T15:54:09.204Z,9.19
2022-11-30T15:56:35.819Z,9.45
2022-11-30T15:59:03.811Z,9.71
2022-11-30T16:01:30.824Z,9.98
2022-11-30T16:04:04.476Z,10.05
2022-11-30T16:06:47.296Z,9.61
2022-11-30T16:09:25.432Z,10.15
2022-11-30T16:11:55.665Z,9.37
2022-11-30T16:14:22.536Z,10.04
2022-11-30T16:16:49.298Z,10.57
2022-11-30T16:19:16.022Z,10.94
2022-11-30T16:21:42.675Z,10.60
2022-11-30T16:24:13.677Z,11.23
2022-11-30T16:26:50.926Z,11.25
2022-11-30T16:29:17.907Z,11.36
2022-11-30T16:31:44.682Z,11.51
2022-11-30T16:34:11.486Z,10.99
2022-11-30T16:36:38.261Z,11.33
2022-11-30T16:39:04.911Z,12.01
2022-11-30T16:41:31.873Z,11.39
2022-11-30T16:43:58.528Z,11.51
2022-11-30T16:46:28.901Z,11.08
2022-11-30T16:48:55.776Z,11.28
2022-11-30T16:51:27.738Z,11.04
2022-11-30T16:53:54.787Z,10.49
2022-11-30T16:56:21.542Z,10.36
2022-11-30T16:58:48.484Z,10.02
2022-11-30T17:01:21.375Z,9.90
2022-11-30T17:03:49.640Z,10.17
2022-11-30T17:06:18.890Z,10.31
2022-11-30T17:08:45.959Z,10.33
2022-11-30T17:11:29.967Z,9.95
2022-11-30T17:13:56.611Z,9.58
2022-11-30T17:16:23.382Z,10.00
2022-11-30T17:18:50.054Z,9.62
2022-11-30T17:21:17.963Z,8.90
2022-11-30T17:23:44.687Z,9.58
2022-11-30T17:26:12.069Z,9.29
2022-11-30T17:28:38.895Z,8.68
2022-11-30T17:31:05.546Z,8.78
2022-11-30T17:33:35.078Z,8.64
2022-11-30T17:36:02.428Z,8.16
2022-11-30T17:38:29.050Z,7.96
2022-11-30T17:40:55.700Z,7.63
2022-11-30T17:43:22.345Z,7.66
2022-11-30T17:45:48.997Z,7.85
2022-11-30T17:48:15.718Z,7.72
2022-11-30T17:50:42.968Z,7.37
2022-11-30T17:53:13.036Z,7.52
2022-11-30T17:55:43.385Z,8.17
2022-11-30T17:58:10.032Z,7.77
2022-11-30T18:00:36.972Z,7.54
2022-11-30T18:03:03.685Z,7.81
2022-11-30T18:05:31.981Z,7.50
2022-11-30T18:07:58.617Z,7.52
2022-11-30T18:10:25.268Z,7.50
2022-11-30T18:12:51.886Z,8.18
2022-11-30T18:15:18.528Z,8.36
2022-11-30T18:17:45.451Z,8.43
2022-11-30T18:20:12.291Z,9.10
2022-11-30T18:22:38.920Z,9.33
2022-11-30T18:25:05.867Z,9.19
2022-11-30T18:27:32.796Z,9.13
2022-11-30T18:29:59.484Z,9.16
2022-11-30T18:32:26.108Z,9.13
2022-11-30T18:34:52.740Z,8.73
2022-11-30T18:37:19.956Z,9.28
2022-11-30T18:39:46.617Z,9.55
2022-11-30T18:42:13.258Z,9.49
2022-11-30T18:44:40.721Z,8.65
2022-11-30T18:47:07.388Z,9.39
2022-11-30T18:49:34.001Z,9.41
2022-11-30T18:52:00.703Z,9.15
2022-11-30T18:54:27.347Z,8.91
2022-11-30T18:56:53.994Z,8.58
2022-11-30T18:59:20.655Z,7.88
2022-11-30T19:01:47.349Z,8.89
2022-11-30T19:04:14.039Z,9.40
2022-11-30T19:06:41.577Z,9.67
2022-11-30T19:09:09.875Z,9.68
2022-11-30T19:11:37.001Z,9.35
2022-11-30T19:14:03.665Z,9.64
2022-11-30T19:16:30.461Z,9.82
2022-11-30T19:18:59.314Z,9.36
2022-11-30T19:21:25.938Z,9.81
2022-11-30T19:23:52.711Z,9.76
2022-11-30T19:26:19.361Z,9.22
2022-11-30T19:28:46.386Z,9.34
2022-11-30T19:31:13.817Z,9.80
2022-11-30T19:33:41.035Z,9.56
2022-11-30T19:36:10.511Z,9.99
2022-11-30T19:38:37.144Z,9.85
2022-11-30T19:41:10.636Z,9.81
2022-11-30T19:43:37.297Z,9.88
2022-11-30T19:46:07.825Z,9.91
2022-11-30T19:48:34.672Z,9.59
2022-11-30T19:51:07.332Z,10.08
2022-11-30T19:53:34.433Z,9.80
2022-11-30T19:56:08.374Z,9.44
2022-11-30T19:58:36.078Z,9.06
2022-11-30T20:01:02.922Z,9.53
2022-11-30T20:03:29.705Z,9.76
2022-11-30T20:05:56.341Z,9.70
2022-11-30T20:08:23.071Z,9.60
2022-11-30T20:10:49.717Z,9.55
2022-11-30T20:13:16.358Z,9.34
2022-11-30T20:15:43.018Z,9.64
2022-11-30T20:18:09.768Z,10.08
2022-11-30T20:20:36.393Z,9.06
2022-11-30T20:23:03.123Z,9.12
2022-11-30T20:25:32.933Z,9.06
2022-11-30T20:28:00.110Z,9.22
2022-11-30T20:30:26.738Z,9.77
2022-11-30T20:32:53.373Z,10.05
2022-11-30T20:35:19.999Z,9.63
2022-11-30T20:37:46.640Z,10.01
2022-11-30T20:40:13.277Z,10.21
2022-11-30T20:42:39.915Z,10.09
2022-11-30T20:45:07.146Z,10.27
2022-11-30T20:47:35.097Z,10.35
2022-11-30T20:50:02.577Z,9.72
2022-11-30T20:52:29.216Z,10.34
2022-11-30T20:54:55.839Z,9.97
2022-11-30T20:57:22.620Z,10.28
2022-11-30T20:59:49.249Z,9.84
2022-11-30T21:02:16.023Z,9.89
2022-11-30T21:04:42.694Z,10.37
2022-11-30T21:07:09.364Z,10.43
2022-11-30T21:09:35.991Z,10.80
2022-11-30T21:12:02.619Z,10.44
2022-11-30T21:14:29.251Z,10.74
2022-11-30T21:16:55.895Z,10.46
2022-11-30T21:19:22.535Z,10.99
2022-11-30T21:21:49.153Z,11.51
2022-11-30T21:24:15.810Z,11.39
2022-11-30T21:26:42.749Z,11.90
2022-11-30T21:29:16.492Z,11.92
2022-11-30T21:31:43.337Z,11.33
2022-11-30T21:34:10.052Z,12.18
2022-11-30T21:36:36.720Z,12.37
2022-11-30T21:39:06.587Z,12.16
2022-11-30T21:41:37.843Z,12.31
2022-11-30T21:44:05.052Z,13.00
2022-11-30T21:46:31.959Z,13.45
2022-11-30T21:48:59.171Z,12.75
2022-11-30T21:51:26.718Z,13.43
2022-11-30T21:53:54.905Z,13.15
2022-11-30T21:56:32.188Z,13.05
2022-11-30T21:58:58.927Z,12.65
2022-11-30T22:01:30.377Z,12.81
2022-11-30T22:03:57.528Z,12.66
2022-11-30T22:06:24.751Z,12.51
2022-11-30T22:08:51.384Z,12.87
2022-11-30T22:11:20.114Z,13.04
2022-11-30T22:13:50.538Z,12.83
2022-11-30T22:16:17.466Z,12.31
2022-11-30T22:18:44.348Z,12.03
2022-11-30T22:21:15.382Z,12.38
2022-11-30T22:23:46.414Z,12.40
2022-11-30T22:26:13.864Z,12.23
2022-11-30T22:28:44.706Z,12.72
2022-11-30T22:31:12.073Z,12.47
2022-11-30T22:33:39.194Z,12.87
2022-11-30T22:36:06.400Z,12.38
2022-11-30T22:38:33.334Z,12.66
2022-11-30T22:41:15.755Z,13.11
2022-11-30T22:43:43.172Z,12.75
2022-11-30T22:46:14.308Z,12.73
2022-11-30T22:48:41.243Z,12.70
2022-11-30T22:51:12.533Z,13.06
2022-11-30T22:53:39.386Z,12.91
2022-11-30T22:56:07.874Z,12.91
2022-11-30T22:58:34.654Z,12.64
2022-11-30T23:01:21.204Z,12.86
2022-11-30T23:03:48.399Z,12.72
2022-11-30T23:06:18.026Z,12.66
2022-11-30T23:08:44.966Z,12.80
2022-11-30T23:11:14.114Z,13.14
2022-11-30T23:13:41.052Z,12.68
2022-11-30T23:16:08.201Z,12.72
2022-11-30T23:18:45.241Z,12.63
2022-11-30T23:21:13.890Z,12.64
2022-11-30T23:23:41.322Z,12.55
2022-11-30T23:26:12.152Z,12.61
2022-11-30T23:28:38.873Z,12.61
2022-11-30T23:31:05.598Z,12.87
2022-11-30T23:33:32.301Z,12.85
2022-11-30T23:35:58.919Z,12.74
2022-11-30T23:38:25.569Z,12.50
2022-11-30T23:40:52.192Z,12.14
2022-11-30T23:43:19.249Z,12.93
2022-11-30T23:45:45.933Z,12.47
2022-11-30T23:48:12.577Z,12.27
2022-11-30T23:50:39.205Z,12.04
2022-11-30T23:53:05.821Z,11.68
2022-11-30T23:55:32.462Z,12.44
2022-11-30T23:57:59.107Z,12.43
